Time;durP1;ratioP1;P1;durP2;ratioP2;P2;SDS_P1;SDS_P2;PMS_P1;PMS_P2;Temp;Humidity;BMP_temperature;BMP_pressure;BME280_temperature;BME280_humidity;BME280_pressure;Samples;Min_cycle;Max_cycle;Signal;HPM_P1;HPM_P2
2023/09/07 00:01:20;;;;;;;5.47;4.65;;;21.20;99.90;;;;;;5024340;28;20057;-63
2023/09/07 00:03:59;;;;;;;5.90;4.20;;;21.20;99.90;;;;;;5038814;28;20045;-63
2023/09/07 00:06:46;;;;;;;5.05;4.15;;;21.10;99.90;;;;;;5051942;28;20045;-64
2023/09/07 00:09:26;;;;;;;5.15;4.30;;;21.10;99.90;;;;;;5052154;28;20079;-64
2023/09/07 00:12:12;;;;;;;5.80;4.30;;;21.10;99.90;;;;;;5051976;28;20067;-64
2023/09/07 00:14:51;;;;;;;5.80;4.38;;;21.00;99.90;;;;;;5052275;28;20103;-63
2023/09/07 00:17:38;;;;;;;4.82;3.92;;;21.00;99.90;;;;;;5051997;28;20072;-64
2023/09/07 00:20:19;;;;;;;5.53;4.03;;;21.10;99.90;;;;;;5051699;28;20071;-65
2023/09/07 00:23:06;;;;;;;5.80;4.40;;;21.00;99.90;;;;;;5052045;28;20064;-64
2023/09/07 00:25:45;;;;;;;8.55;4.60;;;21.00;99.90;;;;;;5051825;28;20049;-63
2023/09/07 00:28:32;;;;;;;7.15;4.40;;;21.00;99.90;;;;;;5051841;28;20045;-64
2023/09/07 00:31:11;;;;;;;5.32;4.82;;;21.00;99.90;;;;;;5051957;28;20096;-64
2023/09/07 00:33:58;;;;;;;6.25;4.35;;;20.90;99.90;;;;;;5050770;28;20060;-64
2023/09/07 00:36:38;;;;;;;6.65;4.53;;;21.00;99.90;;;;;;5049281;28;20117;-63
2023/09/07 00:39:24;;;;;;;5.50;4.88;;;20.90;99.90;;;;;;5051506;28;20056;-63
2023/09/07 00:42:03;;;;;;;5.80;4.20;;;20.80;99.90;;;;;;5051470;28;20134;-64
2023/09/07 00:44:50;;;;;;;6.32;4.70;;;20.80;99.90;;;;;;5051603;28;20057;-64
2023/09/07 00:47:29;;;;;;;5.45;4.25;;;20.80;99.90;;;;;;5047258;28;20045;-63
2023/09/07 00:50:16;;;;;;;7.43;4.50;;;20.80;99.90;;;;;;5071227;28;20056;-64
2023/09/07 00:52:55;;;;;;;6.97;5.07;;;20.70;99.90;;;;;;5071421;28;20060;-64
2023/09/07 00:55:42;;;;;;;7.32;4.90;;;20.70;99.90;;;;;;5070503;28;20502;-64
2023/09/07 00:58:21;;;;;;;5.95;4.93;;;20.70;99.90;;;;;;5071351;28;20048;-64
2023/09/07 01:01:09;;;;;;;7.00;4.57;;;20.70;99.90;;;;;;5071647;28;20052;-63
2023/09/07 01:03:48;;;;;;;7.05;5.55;;;20.70;99.90;;;;;;5071170;28;20154;-64
2023/09/07 01:06:42;;;;;;;6.65;4.70;;;20.70;99.90;;;;;;5070341;28;20064;-63
2023/09/07 01:09:27;;;;;;;7.38;4.90;;;20.60;99.90;;;;;;5071562;28;20098;-64
2023/09/07 01:12:15;;;;;;;5.30;4.72;;;20.60;99.90;;;;;;5070571;28;20059;-63
2023/09/07 01:14:55;;;;;;;6.28;4.63;;;20.60;99.90;;;;;;5071804;28;20048;-63
2023/09/07 01:17:42;;;;;;;6.55;4.85;;;20.50;99.90;;;;;;5071424;28;20353;-63
2023/09/07 01:20:22;;;;;;;6.28;5.38;;;20.50;99.90;;;;;;5071228;28;20372;-63
2023/09/07 01:23:10;;;;;;;5.57;5.07;;;20.50;99.90;;;;;;5071898;28;20052;-63
2023/09/07 01:25:50;;;;;;;6.30;4.90;;;20.60;99.90;;;;;;5071305;28;20437;-63
2023/09/07 01:28:37;;;;;;;6.45;4.60;;;20.50;99.90;;;;;;5071759;28;20055;-63
2023/09/07 01:31:17;;;;;;;7.95;5.20;;;20.50;99.90;;;;;;5071787;28;20061;-63
2023/09/07 01:34:04;;;;;;;6.38;4.90;;;20.50;99.90;;;;;;5071739;28;20060;-64
2023/09/07 01:36:43;;;;;;;5.75;4.82;;;20.50;99.90;;;;;;5075460;28;20059;-63
2023/09/07 01:39:30;;;;;;;7.05;5.03;;;20.40;99.90;;;;;;5075282;28;20040;-63
2023/09/07 01:42:09;;;;;;;5.53;4.90;;;20.40;99.90;;;;;;5075148;28;20114;-63
2023/09/07 01:44:56;;;;;;;7.50;4.82;;;20.40;99.90;;;;;;5074828;28;20377;-63
2023/09/07 01:47:36;;;;;;;6.07;4.70;;;20.30;99.90;;;;;;5073677;28;20048;-63
2023/09/07 01:50:22;;;;;;;6.53;4.85;;;20.30;99.90;;;;;;5087185;28;20056;-63
2023/09/07 01:53:04;;;;;;;6.45;5.10;;;20.30;99.90;;;;;;5074166;28;20373;-63
2023/09/07 01:55:53;;;;;;;6.65;5.18;;;20.30;99.90;;;;;;5035252;28;20057;-64
2023/09/07 01:58:33;;;;;;;7.32;5.25;;;20.30;99.90;;;;;;5035188;28;20061;-63
2023/09/07 02:01:27;;;;;;;6.30;4.75;;;20.20;99.90;;;;;;5035182;28;20056;-63
2023/09/07 02:04:07;;;;;;;5.43;4.65;;;20.20;99.90;;;;;;5067793;28;20047;-63
2023/09/07 02:06:53;;;;;;;6.68;5.35;;;20.20;99.90;;;;;;5074312;28;20049;-63
2023/09/07 02:09:33;;;;;;;7.20;5.30;;;20.20;99.90;;;;;;5074490;28;20507;-63
2023/09/07 02:12:19;;;;;;;6.60;5.03;;;20.20;99.90;;;;;;5073871;28;20064;-63
2023/09/07 02:14:59;;;;;;;6.88;5.05;;;20.10;99.90;;;;;;5094924;28;20375;-63
2023/09/07 02:17:45;;;;;;;6.43;4.90;;;20.10;99.90;;;;;;5072808;28;20063;-63
2023/09/07 02:20:25;;;;;;;7.45;5.75;;;20.10;99.90;;;;;;5094804;28;20047;-63
2023/09/07 02:23:11;;;;;;;6.18;4.93;;;20.00;99.90;;;;;;5074289;28;20045;-64
2023/09/07 02:25:51;;;;;;;6.97;5.30;;;20.00;99.90;;;;;;5034657;28;20049;-64
2023/09/07 02:28:37;;;;;;;8.02;4.88;;;20.00;99.90;;;;;;5035079;28;20382;-63
2023/09/07 02:31:17;;;;;;;6.00;5.10;;;20.00;99.90;;;;;;5054619;28;20049;-63
2023/09/07 02:34:03;;;;;;;5.75;4.88;;;19.90;99.90;;;;;;5065452;28;20452;-63
2023/09/07 02:36:43;;;;;;;7.75;5.25;;;19.90;99.90;;;;;;5094537;28;20052;-65
2023/09/07 02:39:29;;;;;;;6.45;5.20;;;19.90;99.90;;;;;;5095056;28;20059;-63
2023/09/07 02:42:09;;;;;;;9.10;5.40;;;19.90;99.90;;;;;;5094820;28;20369;-63
2023/09/07 02:44:55;;;;;;;7.38;5.43;;;19.90;99.90;;;;;;5094662;28;20380;-64
2023/09/07 02:47:35;;;;;;;6.53;5.60;;;20.00;99.90;;;;;;5091768;28;20113;-64
2023/09/07 02:50:22;;;;;;;6.45;5.40;;;19.80;99.90;;;;;;5046571;28;20045;-63
2023/09/07 02:53:04;;;;;;;7.68;5.53;;;19.80;99.90;;;;;;5054501;28;20072;-63
2023/09/07 02:55:50;;;;;;;7.55;5.68;;;19.80;99.90;;;;;;5033525;28;20097;-64
2023/09/07 02:58:30;;;;;;;6.60;5.45;;;19.80;99.90;;;;;;5016743;28;20489;-63
2023/09/07 03:01:20;;;;;;;6.38;5.45;;;19.70;99.90;;;;;;5034308;28;20070;-63
2023/09/07 03:04:00;;;;;;;6.43;5.78;;;19.70;99.90;;;;;;5039272;28;20067;-62
2023/09/07 03:06:46;;;;;;;6.68;5.47;;;19.50;99.90;;;;;;5051696;28;20059;-63
2023/09/07 03:09:26;;;;;;;7.60;5.50;;;19.60;99.90;;;;;;5054162;28;20053;-64
2023/09/07 03:12:12;;;;;;;9.18;5.85;;;19.50;99.90;;;;;;5053928;28;20434;-63
2023/09/07 03:14:52;;;;;;;6.47;5.72;;;19.60;99.90;;;;;;5050862;28;20420;-63
2023/09/07 03:17:38;;;;;;;6.38;5.45;;;19.50;99.90;;;;;;5053870;28;20057;-64
2023/09/07 03:20:18;;;;;;;6.32;5.72;;;19.50;99.90;;;;;;5053664;28;20061;-63
2023/09/07 03:23:04;;;;;;;6.22;5.63;;;19.50;99.90;;;;;;5053889;28;20433;-64
2023/09/07 03:25:45;;;;;;;7.97;6.13;;;19.50;99.90;;;;;;5054110;28;20049;-64
2023/09/07 03:28:31;;;;;;;8.38;5.65;;;19.40;99.90;;;;;;5053788;28;20056;-63
2023/09/07 03:31:11;;;;;;;7.10;5.70;;;19.40;99.90;;;;;;5053652;28;20124;-64
2023/09/07 03:33:57;;;;;;;8.80;5.53;;;19.30;99.90;;;;;;5053788;28;20045;-63
2023/09/07 03:36:37;;;;;;;7.13;6.30;;;19.30;99.90;;;;;;5053610;28;20114;-63
2023/09/07 03:39:30;;;;;;;6.45;5.70;;;19.30;99.90;;;;;;5052793;28;20546;-64
2023/09/07 03:42:16;;;;;;;9.52;6.03;;;19.30;99.90;;;;;;5053369;28;20067;-63
2023/09/07 03:44:56;;;;;;;7.85;5.72;;;19.20;99.90;;;;;;5070633;28;20114;-64
2023/09/07 03:47:49;;;;;;;6.97;5.93;;;19.20;99.90;;;;;;5055172;28;20407;-63
2023/09/07 03:50:35;;;;;;;7.60;5.75;;;19.10;99.90;;;;;;5072229;28;20084;-63
2023/09/07 03:53:15;;;;;;;8.75;5.72;;;19.00;99.90;;;;;;5073165;28;20048;-64
2023/09/07 03:56:03;;;;;;;9.02;5.57;;;19.10;99.90;;;;;;5092953;28;20453;-63
2023/09/07 03:58:43;;;;;;;9.40;5.55;;;19.00;99.90;;;;;;5092744;28;20465;-63
2023/09/07 04:01:30;;;;;;;8.10;6.07;;;19.10;99.90;;;;;;5093437;28;20044;-63
2023/09/07 04:04:09;;;;;;;8.35;6.18;;;19.10;99.90;;;;;;5087342;28;20052;-63
2023/09/07 04:06:55;;;;;;;10.27;5.53;;;19.00;99.90;;;;;;5071427;28;20059;-63
2023/09/07 04:09:35;;;;;;;7.28;6.05;;;19.00;99.90;;;;;;5071957;28;20096;-63
2023/09/07 04:12:21;;;;;;;8.82;6.10;;;19.00;99.90;;;;;;5072934;28;20063;-64
2023/09/07 04:15:01;;;;;;;7.47;6.22;;;18.90;99.90;;;;;;5072545;28;20476;-63
2023/09/07 04:17:47;;;;;;;7.70;6.20;;;18.90;99.90;;;;;;5072888;28;20052;-64
2023/09/07 04:20:29;;;;;;;7.05;6.35;;;18.90;99.90;;;;;;5072407;28;20114;-63
2023/09/07 04:23:15;;;;;;;8.23;5.93;;;18.80;99.90;;;;;;5073288;28;20052;-63
2023/09/07 04:25:55;;;;;;;7.28;6.07;;;18.80;99.90;;;;;;5072504;28;20094;-63
2023/09/07 04:28:41;;;;;;;9.38;6.30;;;18.80;99.90;;;;;;5070364;28;20052;-63
2023/09/07 04:31:21;;;;;;;6.95;5.95;;;18.70;99.90;;;;;;5072813;28;20045;-63
2023/09/07 04:34:07;;;;;;;6.75;6.05;;;18.70;99.90;;;;;;5072367;28;20051;-64
2023/09/07 04:36:47;;;;;;;7.28;6.32;;;18.50;99.90;;;;;;5071398;28;20372;-64
2023/09/07 04:39:33;;;;;;;8.15;6.72;;;18.60;99.90;;;;;;5072626;28;20048;-63
2023/09/07 04:42:13;;;;;;;7.47;6.65;;;18.50;99.90;;;;;;5072312;28;20098;-63
2023/09/07 04:44:59;;;;;;;8.15;6.10;;;18.50;99.90;;;;;;5072130;28;20056;-64
2023/09/07 04:47:39;;;;;;;8.07;6.38;;;18.50;99.90;;;;;;5069829;28;20060;-63
2023/09/07 04:50:25;;;;;;;7.57;6.30;;;18.40;99.90;;;;;;5052087;28;20053;-63
2023/09/07 04:53:05;;;;;;;8.15;6.40;;;18.40;99.90;;;;;;5052387;28;20361;-63
2023/09/07 04:55:51;;;;;;;9.40;6.68;;;18.40;99.90;;;;;;5051974;28;20366;-63
2023/09/07 04:58:31;;;;;;;9.52;7.15;;;18.40;99.90;;;;;;5052690;28;20053;-63
2023/09/07 05:01:17;;;;;;;8.38;6.90;;;18.30;99.90;;;;;;5052236;28;20060;-64
2023/09/07 05:03:57;;;;;;;8.23;6.50;;;18.40;99.90;;;;;;5052683;28;20053;-63
2023/09/07 05:06:43;;;;;;;9.48;6.28;;;18.40;99.90;;;;;;5052277;28;20064;-63
2023/09/07 05:09:25;;;;;;;8.10;6.63;;;18.30;99.90;;;;;;5028198;28;20071;-64
2023/09/07 05:12:10;;;;;;;9.82;6.82;;;18.30;99.90;;;;;;5056011;28;20056;-64
2023/09/07 05:14:50;;;;;;;9.02;7.13;;;18.20;99.90;;;;;;5056377;28;20391;-64
2023/09/07 05:17:38;;;;;;;9.38;7.10;;;18.20;99.90;;;;;;5064802;28;20059;-63
2023/09/07 05:20:17;;;;;;;8.23;7.07;;;18.20;99.90;;;;;;5075933;28;20044;-63
2023/09/07 05:23:03;;;;;;;9.02;6.75;;;18.20;99.90;;;;;;5075971;28;20381;-63
2023/09/07 05:25:51;;;;;;;11.00;7.10;;;18.20;99.90;;;;;;5058609;28;20114;-63
2023/09/07 05:28:41;;;;;;;9.05;7.47;;;18.20;99.90;;;;;;5055785;28;20044;-63
2023/09/07 05:31:21;;;;;;;7.47;6.63;;;18.20;99.90;;;;;;5056392;28;20041;-63
2023/09/07 05:34:07;;;;;;;8.82;7.20;;;18.20;99.90;;;;;;5054181;28;20041;-63
2023/09/07 05:36:47;;;;;;;8.75;6.95;;;18.20;99.90;;;;;;5056073;28;20048;-63
2023/09/07 05:39:33;;;;;;;10.25;6.72;;;18.30;99.90;;;;;;5055523;28;20445;-64
2023/09/07 05:42:13;;;;;;;10.65;7.50;;;18.30;99.90;;;;;;5055839;28;20053;-64
2023/09/07 05:44:59;;;;;;;8.70;6.95;;;18.50;99.90;;;;;;5055858;28;20056;-63
2023/09/07 05:47:39;;;;;;;8.85;6.78;;;19.20;99.90;;;;;;5066949;28;20041;-64
2023/09/07 05:50:35;;;;;;;7.90;7.10;;;20.10;99.90;;;;;;5075076;28;20523;-64
2023/09/07 05:53:21;;;;;;;10.27;7.63;;;20.90;99.90;;;;;;5071514;28;20376;-64
2023/09/07 05:56:01;;;;;;;10.20;6.88;;;21.40;99.90;;;;;;5071302;28;20230;-64
2023/09/07 05:58:47;;;;;;;8.48;7.18;;;21.90;99.90;;;;;;5071777;28;20062;-64
2023/09/07 06:01:27;;;;;;;8.45;7.43;;;22.30;99.90;;;;;;5072099;28;20056;-64
2023/09/07 06:04:13;;;;;;;10.38;7.35;;;22.50;99.90;;;;;;5068663;28;20048;-64
2023/09/07 06:06:54;;;;;;;8.43;6.47;;;22.90;99.90;;;;;;5071186;28;20071;-64
2023/09/07 06:09:40;;;;;;;8.30;6.53;;;23.00;99.90;;;;;;5071468;28;20052;-64
2023/09/07 06:12:21;;;;;;;9.07;7.00;;;23.30;99.90;;;;;;5071349;28;20396;-63
2023/09/07 06:15:09;;;;;;;7.85;7.05;;;23.60;99.90;;;;;;5071010;28;20048;-63
2023/09/07 06:17:49;;;;;;;10.15;7.05;;;23.80;99.90;;;;;;5070906;28;20052;-63
2023/09/07 06:20:35;;;;;;;8.25;6.70;;;23.90;99.90;;;;;;5069928;28;20044;-64
2023/09/07 06:23:15;;;;;;;8.05;6.78;;;23.80;99.90;;;;;;5071362;28;20136;-64
2023/09/07 06:26:02;;;;;;;9.35;6.90;;;23.80;99.90;;;;;;5070415;28;20491;-63
2023/09/07 06:28:42;;;;;;;8.55;7.13;;;23.80;99.90;;;;;;5071062;28;20061;-63
2023/09/07 06:31:28;;;;;;;8.85;6.60;;;24.00;99.90;;;;;;5053399;28;20040;-63
2023/09/07 06:34:08;;;;;;;7.57;6.80;;;24.00;99.90;;;;;;5070680;28;20436;-64
2023/09/07 06:36:54;;;;;;;8.15;7.00;;;24.00;99.90;;;;;;5070706;28;20040;-64
2023/09/07 06:39:34;;;;;;;9.48;6.80;;;24.40;99.90;;;;;;5071275;28;20044;-63
2023/09/07 06:42:20;;;;;;;8.02;6.35;;;24.30;99.90;;;;;;5070849;28;20057;-65
2023/09/07 06:45:00;;;;;;;8.27;6.40;;;24.40;99.90;;;;;;5070988;28;20063;-63
2023/09/07 06:47:56;;;;;;;9.10;6.57;;;24.30;99.90;;;;;;5070501;28;20048;-63
2023/09/07 06:50:42;;;;;;;8.70;6.32;;;24.70;99.90;;;;;;5050522;28;20055;-63
2023/09/07 06:53:22;;;;;;;8.32;6.90;;;24.80;99.90;;;;;;5043247;28;20060;-63
2023/09/07 06:56:08;;;;;;;9.00;6.55;;;25.00;99.90;;;;;;5049945;28;20477;-64
2023/09/07 06:58:48;;;;;;;7.80;6.72;;;25.00;99.90;;;;;;5050695;28;20118;-64
2023/09/07 07:01:35;;;;;;;7.18;6.45;;;24.80;99.90;;;;;;5050415;28;20143;-63
2023/09/07 07:04:15;;;;;;;8.75;7.10;;;24.70;99.90;;;;;;5050226;28;20063;-64
2023/09/07 07:07:04;;;;;;;7.78;6.63;;;24.30;99.90;;;;;;5049914;28;20045;-63
2023/09/07 07:09:43;;;;;;;9.05;7.15;;;24.00;99.90;;;;;;5050461;28;20517;-64
2023/09/07 07:12:30;;;;;;;9.07;6.82;;;23.80;99.90;;;;;;5049889;28;20388;-64
2023/09/07 07:15:11;;;;;;;8.90;6.55;;;23.70;99.90;;;;;;5049856;28;20057;-64
2023/09/07 07:17:57;;;;;;;8.35;6.63;;;23.60;99.90;;;;;;5050080;28;20056;-64
2023/09/07 07:20:37;;;;;;;8.88;7.10;;;23.60;99.90;;;;;;5049857;28;20059;-64
2023/09/07 07:23:23;;;;;;;7.70;6.55;;;23.50;99.90;;;;;;5050085;28;20049;-63
2023/09/07 07:26:03;;;;;;;7.45;6.53;;;23.50;99.90;;;;;;5049172;28;20056;-63
2023/09/07 07:28:49;;;;;;;8.75;6.60;;;23.40;99.90;;;;;;5049598;28;20048;-64
2023/09/07 07:31:29;;;;;;;8.88;6.20;;;23.40;99.90;;;;;;5049636;28;20338;-64
2023/09/07 07:34:15;;;;;;;8.18;5.90;;;23.50;99.90;;;;;;5031373;28;20041;-64
2023/09/07 07:36:55;;;;;;;8.65;6.32;;;23.60;99.90;;;;;;5049305;28;20110;-63
2023/09/07 07:39:41;;;;;;;7.78;6.97;;;23.70;99.90;;;;;;5049397;28;20387;-64
2023/09/07 07:42:21;;;;;;;9.90;6.38;;;23.60;99.90;;;;;;5049629;28;20110;-64
2023/09/07 07:45:08;;;;;;;7.72;6.47;;;23.80;99.90;;;;;;5031516;28;20044;-64
2023/09/07 07:47:48;;;;;;;10.68;6.85;;;23.80;99.90;;;;;;5049241;28;20068;-64
2023/09/07 07:50:44;;;;;;;9.05;6.55;;;23.90;99.90;;;;;;5069349;28;20451;-64
2023/09/07 07:53:31;;;;;;;9.75;6.45;;;24.00;99.90;;;;;;5069233;28;20044;-64
2023/09/07 07:56:11;;;;;;;8.40;6.30;;;24.10;99.90;;;;;;5068600;28;20381;-63
2023/09/07 07:58:57;;;;;;;8.93;6.30;;;24.10;99.90;;;;;;5068871;28;20092;-63
2023/09/07 08:01:37;;;;;;;8.65;5.75;;;24.20;99.90;;;;;;5068990;28;20442;-64
2023/09/07 08:04:23;;;;;;;8.88;6.93;;;24.30;99.90;;;;;;5068573;28;20060;-64
2023/09/07 08:07:03;;;;;;;10.40;6.38;;;24.30;99.90;;;;;;5068798;28;20060;-64
2023/09/07 08:09:50;;;;;;;6.97;5.95;;;24.40;99.90;;;;;;5069190;28;20059;-64
2023/09/07 08:12:30;;;;;;;7.65;6.32;;;24.30;99.90;;;;;;5069234;28;20057;-64
2023/09/07 08:15:20;;;;;;;7.40;6.40;;;24.40;99.90;;;;;;5068834;28;20067;-65
2023/09/07 08:17:59;;;;;;;7.82;6.35;;;24.40;99.90;;;;;;5068699;28;20052;-64
2023/09/07 08:20:45;;;;;;;6.93;5.82;;;24.50;99.90;;;;;;5050200;28;20047;-64
2023/09/07 08:23:25;;;;;;;10.63;6.32;;;24.50;99.90;;;;;;5068817;28;20308;-63
2023/09/07 08:26:12;;;;;;;7.28;6.57;;;24.60;99.90;;;;;;5068113;28;20278;-64
2023/09/07 08:28:58;;;;;;;7.35;5.80;;;24.60;99.90;;;;;;5068450;28;20361;-64
2023/09/07 08:31:45;;;;;;;8.60;6.50;;;24.70;99.90;;;;;;5068848;28;20041;-64
2023/09/07 08:34:24;;;;;;;9.20;6.50;;;24.80;99.90;;;;;;5068139;28;20453;-63
2023/09/07 08:37:10;;;;;;;8.23;6.53;;;24.80;99.90;;;;;;5067979;28;20044;-64
2023/09/07 08:39:50;;;;;;;8.60;6.60;;;24.90;99.90;;;;;;5068675;28;20056;-64
2023/09/07 08:42:37;;;;;;;9.98;6.22;;;25.00;99.90;;;;;;5050205;28;20052;-65
2023/09/07 08:45:21;;;;;;;7.55;6.60;;;25.00;99.90;;;;;;5072572;28;20063;-64
2023/09/07 08:48:17;;;;;;;10.95;7.07;;;25.20;99.90;;;;;;5073102;28;20059;-63
2023/09/07 08:51:18;;;;;;;8.38;6.53;;;25.10;99.90;;;;;;5072633;28;20376;-65
2023/09/07 08:54:07;;;;;;;8.20;6.72;;;25.20;99.90;;;;;;5072090;28;20044;-63
2023/09/07 08:56:47;;;;;;;8.70;7.10;;;25.30;99.90;;;;;;5072518;28;20048;-64
2023/09/07 08:59:34;;;;;;;7.82;6.65;;;25.30;99.90;;;;;;5072971;28;20059;-64
2023/09/07 09:02:16;;;;;;;8.50;7.60;;;25.30;99.90;;;;;;5073058;28;20079;-64
2023/09/07 09:05:04;;;;;;;7.53;6.70;;;25.30;99.90;;;;;;5072303;28;20048;-64
2023/09/07 09:07:44;;;;;;;9.25;6.53;;;25.30;99.90;;;;;;5072771;28;20484;-64
2023/09/07 09:10:31;;;;;;;9.30;6.75;;;25.40;99.90;;;;;;5072864;28;20448;-64
2023/09/07 09:13:11;;;;;;;12.35;7.43;;;25.40;99.90;;;;;;5072634;28;20049;-64
2023/09/07 09:16:00;;;;;;;8.77;6.70;;;25.40;99.90;;;;;;5071679;28;20068;-64
2023/09/07 09:18:40;;;;;;;10.60;7.00;;;25.60;99.90;;;;;;5072570;28;20110;-64
2023/09/07 09:21:27;;;;;;;9.30;6.80;;;25.70;99.90;;;;;;5072384;28;20083;-65
2023/09/07 09:24:06;;;;;;;7.78;6.65;;;25.70;99.90;;;;;;5071892;28;20052;-64
2023/09/07 09:26:53;;;;;;;8.50;6.95;;;25.80;99.90;;;;;;5056117;28;20063;-64
2023/09/07 09:29:33;;;;;;;8.52;6.10;;;26.00;99.90;;;;;;5072203;28;20080;-63
2023/09/07 09:32:19;;;;;;;7.88;5.88;;;26.10;99.90;;;;;;5072804;28;20054;-63
2023/09/07 09:35:00;;;;;;;9.73;6.80;;;26.20;99.90;;;;;;5074650;28;20048;-64
2023/09/07 09:37:51;;;;;;;9.07;6.60;;;26.30;99.90;;;;;;5074883;28;20051;-64
2023/09/07 09:40:31;;;;;;;9.65;6.82;;;26.20;99.90;;;;;;5074932;28;20040;-64
2023/09/07 09:43:20;;;;;;;9.52;7.00;;;26.20;99.90;;;;;;5074141;28;20052;-64
2023/09/07 09:45:59;;;;;;;7.35;6.25;;;26.20;99.90;;;;;;5073956;28;20422;-64
2023/09/07 09:48:53;;;;;;;9.98;6.72;;;26.30;99.90;;;;;;5072097;28;20060;-64
2023/09/07 09:51:41;;;;;;;9.40;6.25;;;26.40;99.90;;;;;;5036643;28;20049;-64
2023/09/07 09:54:23;;;;;;;8.30;7.05;;;26.50;99.90;;;;;;5054358;28;20434;-63
2023/09/07 09:57:10;;;;;;;7.95;6.13;;;26.60;99.90;;;;;;5054109;28;20060;-63
2023/09/07 09:59:51;;;;;;;9.80;6.55;;;26.70;99.90;;;;;;5053754;28;20049;-63
2023/09/07 10:02:38;;;;;;;8.52;6.50;;;26.70;99.90;;;;;;5054099;28;20063;-64
2023/09/07 10:05:19;;;;;;;7.95;6.18;;;26.80;99.90;;;;;;5053786;28;20106;-64
2023/09/07 10:08:13;;;;;;;8.60;6.30;;;26.80;99.90;;;;;;5035913;28;20048;-63
2023/09/07 10:10:59;;;;;;;9.40;7.03;;;26.90;99.90;;;;;;5054091;28;20053;-65
2023/09/07 10:13:45;;;;;;;6.60;5.90;;;27.00;99.90;;;;;;5054007;28;20321;-64
2023/09/07 10:16:26;;;;;;;9.70;5.50;;;27.10;99.90;;;;;;5026782;28;20119;-64
2023/09/07 10:19:23;;;;;;;7.03;6.32;;;27.20;99.90;;;;;;5033468;28;20117;-64
2023/09/07 10:22:03;;;;;;;7.28;6.22;;;27.30;99.90;;;;;;5033973;28;20045;-63
2023/09/07 10:24:57;;;;;;;10.30;7.32;;;27.30;99.90;;;;;;5041818;28;20071;-64
2023/09/07 10:27:43;;;;;;;7.00;5.90;;;27.40;99.90;;;;;;5046968;28;20048;-63
2023/09/07 10:30:32;;;;;;;8.02;5.68;;;27.50;99.90;;;;;;5037128;28;20661;-64
2023/09/07 10:33:11;;;;;;;13.40;6.32;;;27.50;99.90;;;;;;5053237;28;20045;-64
2023/09/07 10:35:58;;;;;;;7.93;6.28;;;27.70;99.90;;;;;;5052921;28;20072;-63
2023/09/07 10:38:39;;;;;;;8.43;4.93;;;27.60;99.90;;;;;;5053276;28;20064;-64
2023/09/07 10:41:26;;;;;;;6.25;5.60;;;27.70;99.90;;;;;;5037730;28;20052;-63
2023/09/07 10:44:13;;;;;;;7.22;6.13;;;27.90;99.90;;;;;;5052490;28;20052;-63
2023/09/07 10:46:52;;;;;;;7.60;5.47;;;27.90;99.90;;;;;;5053147;28;20056;-63
2023/09/07 10:49:37;;;;;;;6.20;5.28;;;27.90;99.90;;;;;;5047692;28;20040;-63
2023/09/07 10:52:24;;;;;;;7.05;5.88;;;28.00;99.90;;;;;;5093271;28;20040;-62
2023/09/07 10:55:03;;;;;;;6.97;5.45;;;28.10;99.90;;;;;;5083234;28;20056;-64
2023/09/07 10:57:50;;;;;;;6.53;5.82;;;28.20;99.90;;;;;;5071600;28;20342;-63
2023/09/07 11:00:29;;;;;;;7.50;5.47;;;28.20;99.90;;;;;;5072465;28;20056;-63
2023/09/07 11:03:16;;;;;;;7.88;6.07;;;28.20;99.90;;;;;;5057326;28;20102;-64
2023/09/07 11:05:57;;;;;;;8.68;5.80;;;28.10;99.90;;;;;;5089353;28;20109;-64
2023/09/07 11:08:44;;;;;;;8.23;6.43;;;28.10;99.90;;;;;;5091866;28;20059;-64
2023/09/07 11:11:24;;;;;;;8.20;5.05;;;28.10;99.90;;;;;;5092934;28;20044;-63
2023/09/07 11:14:10;;;;;;;7.13;5.57;;;28.20;99.90;;;;;;5090415;28;20048;-62
2023/09/07 11:16:49;;;;;;;7.68;5.07;;;28.30;99.90;;;;;;5072296;28;20436;-63
2023/09/07 11:19:36;;;;;;;6.40;5.68;;;28.50;99.90;;;;;;5070321;28;20498;-64
2023/09/07 11:22:19;;;;;;;6.25;5.47;;;28.60;99.90;;;;;;5071810;28;20052;-63
2023/09/07 11:25:06;;;;;;;7.45;5.10;;;28.70;99.90;;;;;;5072555;28;20473;-64
2023/09/07 11:27:46;;;;;;;6.05;5.13;;;28.80;99.90;;;;;;5071904;28;20059;-64
2023/09/07 11:30:33;;;;;;;7.38;5.35;;;28.80;99.90;;;;;;5071605;28;20114;-64
2023/09/07 11:33:13;;;;;;;7.20;5.40;;;28.80;99.90;;;;;;5071368;28;20045;-63
2023/09/07 11:36:00;;;;;;;6.88;4.70;;;28.90;99.90;;;;;;5089129;28;20048;-63
2023/09/07 11:38:44;;;;;;;6.93;4.70;;;29.00;99.90;;;;;;5073369;28;20058;-64
2023/09/07 11:41:30;;;;;;;6.80;4.55;;;29.00;99.90;;;;;;5085215;28;20051;-64
2023/09/07 11:44:09;;;;;;;6.70;4.90;;;29.00;99.80;;;;;;5072566;28;20366;-64
2023/09/07 11:46:56;;;;;;;7.70;4.85;;;29.10;99.90;;;;;;5051240;28;20045;-64
2023/09/07 11:49:35;;;;;;;7.30;4.75;;;29.20;99.90;;;;;;5053365;28;20148;-64
2023/09/07 11:52:22;;;;;;;6.57;4.80;;;29.30;99.90;;;;;;5051402;28;20044;-64
2023/09/07 11:55:04;;;;;;;5.25;4.75;;;29.20;99.60;;;;;;5051436;28;20045;-64
2023/09/07 11:57:51;;;;;;;6.78;4.53;;;29.20;99.40;;;;;;5050961;28;20477;-64
2023/09/07 12:00:31;;;;;;;6.25;4.75;;;29.30;99.40;;;;;;5051448;28;20464;-65
2023/09/07 12:03:17;;;;;;;6.15;4.32;;;29.40;99.30;;;;;;5051055;28;20060;-64
2023/09/07 12:05:56;;;;;;;6.20;4.45;;;29.60;98.70;;;;;;5051426;28;20425;-64
2023/09/07 12:08:59;;;;;;;6.32;4.30;;;29.50;98.70;;;;;;5051316;28;20476;-63
2023/09/07 12:11:38;;;;;;;6.32;4.30;;;29.50;98.00;;;;;;5051158;28;20136;-64
2023/09/07 12:14:25;;;;;;;6.03;4.07;;;29.50;98.40;;;;;;5050987;28;20118;-64
2023/09/07 12:17:05;;;;;;;5.45;4.53;;;29.50;98.00;;;;;;5051133;28;20045;-64
2023/09/07 12:19:51;;;;;;;8.57;4.78;;;29.50;98.10;;;;;;5050737;28;20060;-64
2023/09/07 12:22:32;;;;;;;5.45;4.30;;;29.60;98.10;;;;;;5051660;28;20049;-63
2023/09/07 12:25:18;;;;;;;5.07;4.50;;;29.60;98.10;;;;;;5050466;28;20068;-64
2023/09/07 12:27:57;;;;;;;5.65;4.50;;;29.60;98.20;;;;;;5051569;28;20068;-63
2023/09/07 12:30:44;;;;;;;6.15;4.28;;;29.70;97.60;;;;;;5051462;28;20231;-63
2023/09/07 12:33:23;;;;;;;5.43;4.20;;;29.60;97.60;;;;;;5051272;28;20472;-64
2023/09/07 12:36:11;;;;;;;8.48;4.50;;;29.70;97.60;;;;;;5050578;28;20071;-64
2023/09/07 12:38:50;;;;;;;7.80;4.25;;;29.70;97.10;;;;;;5051159;28;20056;-64
2023/09/07 12:41:37;;;;;;;5.72;4.32;;;29.70;97.00;;;;;;5051116;28;20064;-64
2023/09/07 12:44:18;;;;;;;5.13;3.92;;;29.70;96.30;;;;;;5051065;28;20041;-64
2023/09/07 12:47:05;;;;;;;7.05;4.35;;;29.70;96.60;;;;;;5051485;28;20041;-63
2023/09/07 12:49:44;;;;;;;6.22;4.53;;;29.80;96.30;;;;;;5060217;28;20130;-63
2023/09/07 12:52:32;;;;;;;5.15;4.65;;;29.80;96.40;;;;;;5091437;28;20048;-63
2023/09/07 12:55:12;;;;;;;5.65;4.07;;;29.80;96.20;;;;;;5090517;28;20044;-63
2023/09/07 12:58:00;;;;;;;4.72;3.95;;;29.80;96.70;;;;;;5091089;28;20044;-64
2023/09/07 13:00:39;;;;;;;7.32;4.72;;;29.80;96.40;;;;;;5090996;28;20461;-64
2023/09/07 13:03:26;;;;;;;6.57;4.53;;;29.90;95.90;;;;;;5074306;28;20448;-64
2023/09/07 13:06:05;;;;;;;5.00;3.92;;;29.90;96.20;;;;;;5070798;28;20385;-64
2023/09/07 13:08:52;;;;;;;5.90;3.85;;;29.90;96.30;;;;;;5070614;28;20044;-63
2023/09/07 13:11:31;;;;;;;5.97;4.20;;;29.90;96.00;;;;;;5070522;28;20048;-63
2023/09/07 13:14:18;;;;;;;7.10;4.25;;;30.00;96.40;;;;;;5053310;28;20048;-64
2023/09/07 13:16:58;;;;;;;6.82;4.13;;;30.00;96.40;;;;;;5070469;28;20066;-63
2023/09/07 13:19:45;;;;;;;5.63;4.15;;;30.00;96.40;;;;;;5070684;28;20076;-63
2023/09/07 13:22:25;;;;;;;8.27;4.20;;;30.00;95.80;;;;;;5050319;28;20049;-63
2023/09/07 13:25:11;;;;;;;6.70;4.63;;;30.00;96.20;;;;;;5048812;28;20040;-63
2023/09/07 13:27:51;;;;;;;4.85;3.90;;;30.00;96.10;;;;;;5070829;28;20464;-63
2023/09/07 13:30:37;;;;;;;7.65;4.57;;;30.20;96.50;;;;;;5071433;28;20055;-63
2023/09/07 13:33:17;;;;;;;5.32;4.47;;;30.20;96.30;;;;;;5074140;28;20060;-64
2023/09/07 13:36:03;;;;;;;7.82;4.55;;;30.20;96.50;;;;;;5089996;28;20040;-64
2023/09/07 13:38:43;;;;;;;5.30;4.47;;;30.30;96.30;;;;;;5094397;28;20063;-64
2023/09/07 13:41:29;;;;;;;5.57;3.72;;;30.30;96.40;;;;;;5076255;28;20051;-65
2023/09/07 13:44:09;;;;;;;5.05;4.00;;;30.30;96.40;;;;;;5092755;28;20508;-64
2023/09/07 13:46:55;;;;;;;6.03;4.15;;;30.30;96.40;;;;;;5073939;28;20048;-64
2023/09/07 13:49:35;;;;;;;5.13;3.78;;;30.30;96.70;;;;;;5073792;28;20536;-65
2023/09/07 13:52:21;;;;;;;5.43;4.57;;;30.40;96.60;;;;;;5055377;28;20132;-64
2023/09/07 13:55:01;;;;;;;5.93;4.20;;;30.30;96.20;;;;;;5070815;28;20044;-65
2023/09/07 13:57:47;;;;;;;5.43;4.10;;;30.30;96.40;;;;;;5069473;28;20309;-63
2023/09/07 14:00:27;;;;;;;5.40;4.43;;;30.20;96.50;;;;;;5091835;28;20048;-63
2023/09/07 14:03:13;;;;;;;5.75;3.95;;;30.20;96.60;;;;;;5093050;28;20067;-63
2023/09/07 14:05:53;;;;;;;8.30;4.32;;;30.20;96.30;;;;;;5095264;28;20044;-64
2023/09/07 14:08:39;;;;;;;5.75;4.38;;;30.20;96.30;;;;;;5073989;28;20048;-64
2023/09/07 14:11:19;;;;;;;6.47;4.35;;;30.20;96.40;;;;;;5094511;28;20052;-64